Time;durP1;ratioP1;P1;durP2;ratioP2;P2;SDS_P1;SDS_P2;PMS_P1;PMS_P2;Temp;Humidity;BMP_temperature;BMP_pressure;BME280_temperature;BME280_humidity;BME280_pressure;Samples;Min_cycle;Max_cycle;Signal;HPM_P1;HPM_P2
2022/04/27 00:00:48;;;;;;;25.95;18.08;;;7.70;99.90;;;;;;2507188;23;20045;-69
2022/04/27 00:01:49;;;;;;;24.38;16.92;;;7.70;99.90;;;;;;2507418;23;20017;-69
2022/04/27 00:02:50;;;;;;;25.83;17.17;;;7.60;99.90;;;;;;2507464;23;20011;-69
2022/04/27 00:03:52;;;;;;;26.10;17.85;;;7.60;99.90;;;;;;2507363;23;20042;-71
2022/04/27 00:04:52;;;;;;;25.90;18.08;;;7.70;99.90;;;;;;2507306;23;20019;-69
2022/04/27 00:05:53;;;;;;;23.33;16.50;;;7.60;99.90;;;;;;2494716;23;20033;-70
2022/04/27 00:06:54;;;;;;;22.45;16.23;;;7.60;99.90;;;;;;2494395;23;20019;-71
2022/04/27 00:07:55;;;;;;;23.70;16.55;;;7.60;99.90;;;;;;2507239;23;20086;-70
2022/04/27 00:08:55;;;;;;;20.63;14.90;;;7.60;99.90;;;;;;2507324;23;20058;-71
2022/04/27 00:09:56;;;;;;;21.38;15.15;;;7.60;99.90;;;;;;2507413;23;20018;-70
2022/04/27 00:10:56;;;;;;;20.38;15.23;;;7.50;99.90;;;;;;2507512;23;20011;-70
2022/04/27 00:12:00;;;;;;;20.05;15.43;;;7.60;99.90;;;;;;2507571;23;20015;-70
2022/04/27 00:13:01;;;;;;;19.35;14.85;;;7.60;99.90;;;;;;2507452;23;20010;-71
2022/04/27 00:14:03;;;;;;;18.73;14.65;;;7.50;99.90;;;;;;2507597;23;20030;-71
2022/04/27 00:15:05;;;;;;;18.98;14.40;;;7.60;99.90;;;;;;2507729;23;20603;-70
2022/04/27 00:16:06;;;;;;;16.10;13.30;;;7.50;99.90;;;;;;2507641;23;20050;-71
2022/04/27 00:17:07;;;;;;;17.58;13.73;;;7.50;99.90;;;;;;2507335;23;20436;-71
2022/04/27 00:18:07;;;;;;;15.65;13.25;;;7.50;99.90;;;;;;2507774;23;20034;-71
2022/04/27 00:19:08;;;;;;;16.33;13.32;;;7.50;99.90;;;;;;2507724;23;20440;-71
2022/04/27 00:20:09;;;;;;;17.58;13.90;;;7.50;99.90;;;;;;2507546;23;20022;-71
2022/04/27 00:21:10;;;;;;;17.80;13.38;;;7.40;99.90;;;;;;2507727;23;20124;-71
2022/04/27 00:22:11;;;;;;;17.83;13.48;;;7.40;99.90;;;;;;2495098;23;20018;-70
2022/04/27 00:23:12;;;;;;;17.30;13.73;;;7.40;99.90;;;;;;2495341;23;20454;-70
2022/04/27 00:24:13;;;;;;;16.00;13.15;;;7.40;99.90;;;;;;2507917;23;20018;-70
2022/04/27 00:25:13;;;;;;;17.55;13.68;;;7.40;99.90;;;;;;2507494;23;20591;-70
2022/04/27 00:26:14;;;;;;;16.60;13.68;;;7.40;99.90;;;;;;2507335;23;20069;-70
2022/04/27 00:27:15;;;;;;;17.13;13.40;;;7.30;99.90;;;;;;2507067;23;20359;-70
2022/04/27 00:28:16;;;;;;;17.42;13.55;;;7.40;99.90;;;;;;2507496;23;20030;-70
2022/04/27 00:29:16;;;;;;;17.27;13.52;;;7.30;99.90;;;;;;2507692;23;20078;-69
2022/04/27 00:30:17;;;;;;;16.50;13.25;;;7.30;99.90;;;;;;2494625;23;20010;-69
2022/04/27 00:31:17;;;;;;;16.00;13.07;;;7.30;99.90;;;;;;2494666;23;20102;-69
2022/04/27 00:32:18;;;;;;;16.77;13.50;;;7.30;99.90;;;;;;2506696;23;20006;-69
2022/04/27 00:33:19;;;;;;;16.10;12.82;;;7.30;99.90;;;;;;2506579;23;20828;-69
2022/04/27 00:34:19;;;;;;;17.42;13.90;;;7.30;99.90;;;;;;2494290;23;20396;-69
2022/04/27 00:35:20;;;;;;;16.70;12.98;;;7.30;99.90;;;;;;2494872;23;20031;-70
2022/04/27 00:36:21;;;;;;;17.30;13.32;;;7.30;99.90;;;;;;2507274;23;19995;-69
2022/04/27 00:37:21;;;;;;;17.23;13.30;;;7.20;99.90;;;;;;2507049;23;20078;-70
2022/04/27 00:38:22;;;;;;;16.55;13.20;;;7.30;99.90;;;;;;2507219;23;20093;-69
2022/04/27 00:39:23;;;;;;;20.52;14.63;;;7.20;99.90;;;;;;2506439;23;20038;-69
2022/04/27 00:40:23;;;;;;;16.13;13.32;;;7.30;99.90;;;;;;2506463;23;20054;-70
2022/04/27 00:41:24;;;;;;;17.50;13.27;;;7.20;99.90;;;;;;2506507;23;20003;-70
2022/04/27 00:42:24;;;;;;;17.17;13.60;;;7.20;99.90;;;;;;2507034;23;20038;-69
2022/04/27 00:43:42;;;;;;;17.52;13.95;;;7.20;99.90;;;;;;2507195;23;20003;-70
2022/04/27 00:44:43;;;;;;;18.25;14.20;;;7.20;99.90;;;;;;2507298;23;20566;-70
2022/04/27 00:45:44;;;;;;;17.85;14.18;;;7.20;99.90;;;;;;2494497;23;20015;-69
2022/04/27 00:46:45;;;;;;;17.58;13.73;;;7.20;99.90;;;;;;2494785;23;20007;-70
2022/04/27 00:47:45;;;;;;;20.48;14.55;;;7.10;99.90;;;;;;2506898;23;20011;-70
2022/04/27 00:48:46;;;;;;;17.55;13.85;;;7.10;99.90;;;;;;2494730;23;20007;-70
2022/04/27 00:49:52;;;;;;;17.98;13.85;;;7.10;99.90;;;;;;2494810;23;20051;-70
2022/04/27 00:50:53;;;;;;;16.83;13.43;;;7.10;99.90;;;;;;2507380;23;20621;-70
2022/04/27 00:51:55;;;;;;;17.52;13.82;;;7.10;99.90;;;;;;2507429;23;20007;-70
2022/04/27 00:52:56;;;;;;;18.27;13.90;;;7.10;99.90;;;;;;2507133;23;20003;-70
2022/04/27 00:53:59;;;;;;;19.52;14.50;;;7.00;99.90;;;;;;2507176;23;20057;-72
2022/04/27 00:55:01;;;;;;;17.83;13.35;;;7.00;99.90;;;;;;2494599;23;20104;-69
2022/04/27 00:56:02;;;;;;;18.23;14.52;;;7.00;99.90;;;;;;2494869;23;20097;-69
2022/04/27 00:57:03;;;;;;;17.35;14.10;;;7.00;99.90;;;;;;2494425;23;20090;-69
2022/04/27 00:58:04;;;;;;;19.45;14.32;;;7.00;99.90;;;;;;2494701;23;20007;-70
2022/04/27 00:59:05;;;;;;;18.35;14.75;;;7.00;99.90;;;;;;2494577;23;20048;-69
2022/04/27 01:00:07;;;;;;;17.75;14.05;;;7.00;99.90;;;;;;2494520;23;20023;-69
2022/04/27 01:01:08;;;;;;;19.20;14.18;;;7.00;99.90;;;;;;2494564;23;20098;-70
2022/04/27 01:02:09;;;;;;;17.63;13.73;;;6.90;99.90;;;;;;2494700;23;19999;-70
2022/04/27 01:03:10;;;;;;;18.88;14.05;;;6.90;99.90;;;;;;2506531;23;20073;-70
2022/04/27 01:04:11;;;;;;;17.75;13.60;;;6.90;99.90;;;;;;2494704;23;20429;-70
2022/04/27 01:05:12;;;;;;;17.88;13.95;;;6.90;99.90;;;;;;2494770;23;20019;-70
2022/04/27 01:06:13;;;;;;;17.55;13.80;;;6.90;99.90;;;;;;2506159;23;20637;-70
2022/04/27 01:07:14;;;;;;;18.05;14.07;;;6.90;99.90;;;;;;2482729;23;20011;-70
2022/04/27 01:08:20;;;;;;;19.73;14.45;;;6.90;99.90;;;;;;2494633;23;20007;-70
2022/04/27 01:09:23;;;;;;;18.88;14.32;;;6.90;99.90;;;;;;2505473;23;20591;-70
2022/04/27 01:10:26;;;;;;;19.42;13.65;;;6.90;99.90;;;;;;2483123;23;20012;-70
2022/04/27 01:11:27;;;;;;;19.15;14.07;;;6.80;99.90;;;;;;2495134;23;20559;-70
2022/04/27 01:12:30;;;;;;;19.13;14.45;;;6.80;99.90;;;;;;2506045;23;20108;-71
2022/04/27 01:13:39;;;;;;;17.70;13.82;;;6.80;99.90;;;;;;2484514;23;20008;-70
2022/04/27 01:14:44;;;;;;;19.27;13.68;;;6.80;99.90;;;;;;2482951;23;20396;-70
2022/04/27 01:15:45;;;;;;;18.30;14.50;;;6.80;99.90;;;;;;2495349;23;20369;-70
2022/04/27 01:16:57;;;;;;;20.70;15.05;;;6.80;99.90;;;;;;2494511;23;20007;-70
2022/04/27 01:17:58;;;;;;;22.33;15.65;;;6.70;99.90;;;;;;2496810;23;20821;-70
2022/04/27 01:19:01;;;;;;;23.10;16.33;;;6.70;99.90;;;;;;2505961;23;20003;-71
2022/04/27 01:20:04;;;;;;;22.23;16.75;;;6.70;99.90;;;;;;2494725;23;20063;-70
2022/04/27 01:21:05;;;;;;;24.23;16.85;;;6.70;99.90;;;;;;2494677;23;20015;-70
2022/04/27 01:22:14;;;;;;;25.23;16.92;;;6.70;99.90;;;;;;2496727;23;20364;-70
2022/04/27 01:23:18;;;;;;;23.70;16.55;;;6.70;99.90;;;;;;2506538;23;20006;-70
2022/04/27 01:24:24;;;;;;;25.38;17.23;;;6.70;99.90;;;;;;2506615;23;20003;-70
2022/04/27 01:25:25;;;;;;;23.25;16.48;;;6.70;99.90;;;;;;2494698;23;20733;-70
2022/04/27 01:26:25;;;;;;;21.77;15.82;;;6.70;99.90;;;;;;2494289;23;20010;-70
2022/04/27 01:27:26;;;;;;;20.27;14.75;;;6.70;99.90;;;;;;2505985;23;20118;-69
2022/04/27 01:28:31;;;;;;;20.05;14.73;;;6.60;99.90;;;;;;2494720;23;20003;-70
2022/04/27 01:29:32;;;;;;;18.85;14.38;;;6.60;99.90;;;;;;2495605;23;20007;-71
2022/04/27 01:30:34;;;;;;;18.98;14.18;;;6.60;99.90;;;;;;2506346;23;20690;-71
2022/04/27 01:31:34;;;;;;;16.95;13.48;;;6.60;99.90;;;;;;2506442;23;20010;-71
2022/04/27 01:32:35;;;;;;;17.65;13.60;;;6.60;99.90;;;;;;2494578;23;20672;-71
2022/04/27 01:33:36;;;;;;;17.65;12.68;;;6.60;99.90;;;;;;2494665;23;20000;-72
2022/04/27 01:34:37;;;;;;;18.48;13.68;;;6.60;99.90;;;;;;2507285;23;20026;-70
2022/04/27 01:35:38;;;;;;;16.63;12.90;;;6.60;99.90;;;;;;2507238;23;20097;-70
2022/04/27 01:36:39;;;;;;;19.65;13.68;;;6.60;99.90;;;;;;2506388;23;20015;-71
2022/04/27 01:38:59;;;;;;;18.42;14.10;;;6.60;99.90;;;;;;2494994;23;20019;-71
2022/04/27 01:39:59;;;;;;;24.95;16.42;;;6.60;99.90;;;;;;2494473;23;20042;-70
2022/04/27 01:41:00;;;;;;;22.02;15.82;;;6.60;99.90;;;;;;2494592;23;20480;-70
2022/04/27 01:42:00;;;;;;;22.10;15.57;;;6.60;99.90;;;;;;2482939;23;20512;-71
2022/04/27 01:43:01;;;;;;;24.13;16.95;;;6.50;99.90;;;;;;2483153;23;20042;-71
2022/04/27 01:44:03;;;;;;;24.35;16.75;;;6.50;99.90;;;;;;2483420;23;20012;-71
2022/04/27 01:45:04;;;;;;;26.52;17.13;;;6.50;99.90;;;;;;2495067;23;20396;-71
2022/04/27 01:46:09;;;;;;;26.48;17.60;;;6.50;99.90;;;;;;2495642;23;20027;-71
2022/04/27 01:47:10;;;;;;;25.20;17.27;;;6.50;99.90;;;;;;2494844;23;20360;-70
2022/04/27 01:48:12;;;;;;;26.25;17.55;;;6.50;99.90;;;;;;2494614;23;20062;-70
2022/04/27 01:49:13;;;;;;;30.88;19.45;;;6.50;99.90;;;;;;2494666;23;20007;-70
2022/04/27 01:50:13;;;;;;;28.15;18.20;;;6.50;99.90;;;;;;2495284;23;20011;-70
2022/04/27 01:51:14;;;;;;;29.88;18.60;;;6.40;99.90;;;;;;2495466;23;20238;-70
2022/04/27 01:54:54;;;;;;;26.70;17.17;;;6.40;99.90;;;;;;2486557;23;20453;-71
2022/04/27 01:55:55;;;;;;;23.23;15.50;;;6.40;99.90;;;;;;2494442;23;20034;-70
2022/04/27 01:56:56;;;;;;;21.38;14.93;;;6.40;99.90;;;;;;2482815;23;20012;-71
2022/04/27 01:57:58;;;;;;;21.02;14.48;;;6.40;99.90;;;;;;2483078;23;20035;-70
2022/04/27 01:58:59;;;;;;;19.23;14.10;;;6.40;99.90;;;;;;2482912;23;20582;-70
2022/04/27 01:59:59;;;;;;;18.85;13.77;;;6.40;99.90;;;;;;2482930;23;20007;-72
2022/04/27 02:01:00;;;;;;;19.08;14.23;;;6.40;99.90;;;;;;2482773;23;20031;-70
2022/04/27 02:02:03;;;;;;;18.33;14.30;;;6.40;99.90;;;;;;2471382;23;20441;-70
2022/04/27 02:03:04;;;;;;;19.63;14.35;;;6.30;99.90;;;;;;2471248;24;20040;-69
2022/04/27 02:04:05;;;;;;;18.08;13.70;;;6.30;99.90;;;;;;2482886;23;20015;-69
2022/04/27 02:05:07;;;;;;;18.13;13.48;;;6.30;99.90;;;;;;2494473;23;20171;-71
2022/04/27 02:06:08;;;;;;;19.10;14.10;;;6.30;99.90;;;;;;2494548;23;20091;-71
2022/04/27 02:07:08;;;;;;;16.65;12.98;;;6.30;99.90;;;;;;2494984;23;20003;-71
2022/04/27 02:08:09;;;;;;;17.55;13.45;;;6.30;99.90;;;;;;2494414;23;20007;-71
2022/04/27 02:09:10;;;;;;;17.27;13.63;;;6.30;99.90;;;;;;2482829;23;20419;-71
2022/04/27 02:10:21;;;;;;;17.75;13.35;;;6.30;99.90;;;;;;2472970;23;20009;-70
2022/04/27 02:11:24;;;;;;;16.65;13.13;;;6.30;99.90;;;;;;2482838;23;20000;-70
2022/04/27 02:12:40;;;;;;;19.55;13.88;;;6.30;99.90;;;;;;2483000;23;20079;-70
2022/04/27 02:13:48;;;;;;;18.40;13.48;;;6.30;99.90;;;;;;2475345;23;20007;-69
2022/04/27 02:14:48;;;;;;;17.35;13.30;;;6.20;99.90;;;;;;2482967;23;20012;-71
2022/04/27 02:15:50;;;;;;;16.85;13.18;;;6.20;99.90;;;;;;2494596;23;20014;-70
2022/04/27 02:17:05;;;;;;;18.65;13.45;;;6.20;99.90;;;;;;2482555;23;20042;-69
2022/04/27 02:18:06;;;;;;;17.25;13.30;;;6.20;99.90;;;;;;2471624;24;20438;-70
2022/04/27 02:19:06;;;;;;;17.40;13.25;;;6.20;99.90;;;;;;2483716;23;20063;-71
2022/04/27 02:20:08;;;;;;;18.83;14.15;;;6.20;99.90;;;;;;2483387;23;20099;-71
2022/04/27 02:21:09;;;;;;;18.38;13.45;;;6.20;99.90;;;;;;2483801;23;20015;-70
2022/04/27 02:22:10;;;;;;;17.55;13.60;;;6.20;99.90;;;;;;2483548;23;20008;-70
2022/04/27 02:23:11;;;;;;;18.75;13.50;;;6.10;99.90;;;;;;2483578;23;20008;-70
2022/04/27 02:24:11;;;;;;;16.77;13.23;;;6.10;99.90;;;;;;2483429;23;20015;-70
2022/04/27 02:25:12;;;;;;;17.67;13.75;;;6.10;99.90;;;;;;2483326;23;20499;-72
2022/04/27 02:26:13;;;;;;;17.13;13.43;;;6.10;99.90;;;;;;2496010;23;20043;-71
2022/04/27 02:27:14;;;;;;;19.15;13.75;;;6.10;99.90;;;;;;2494656;23;20038;-72
2022/04/27 02:28:14;;;;;;;18.92;13.50;;;6.10;99.90;;;;;;2495275;23;20583;-68
2022/04/27 02:29:16;;;;;;;19.17;14.15;;;6.10;99.90;;;;;;2495979;23;20062;-70
2022/04/27 02:30:18;;;;;;;18.38;13.82;;;6.10;99.90;;;;;;2471565;24;20012;-69
2022/04/27 02:31:19;;;;;;;16.58;13.30;;;6.10;99.90;;;;;;2472704;23;20365;-70
2022/04/27 02:32:20;;;;;;;16.58;13.27;;;6.10;99.90;;;;;;2483497;23;20008;-70
2022/04/27 02:33:21;;;;;;;16.92;13.18;;;6.10;99.90;;;;;;2472046;23;20035;-69
2022/04/27 02:34:22;;;;;;;17.35;13.40;;;6.10;99.90;;;;;;2471798;24;20276;-71
2022/04/27 02:35:22;;;;;;;18.58;13.90;;;6.00;99.90;;;;;;2471553;24;20008;-71
2022/04/27 02:36:23;;;;;;;16.65;12.95;;;6.00;99.90;;;;;;2483397;23;20742;-70
2022/04/27 02:37:25;;;;;;;17.02;13.63;;;6.00;99.90;;;;;;2494776;23;20029;-70
2022/04/27 02:38:31;;;;;;;17.55;13.18;;;6.00;99.90;;;;;;2501369;23;20015;-70
2022/04/27 02:39:36;;;;;;;16.73;13.40;;;6.00;99.90;;;;;;2506850;23;20412;-69
2022/04/27 02:40:37;;;;;;;15.18;12.57;;;6.00;99.90;;;;;;2506857;23;20007;-71
2022/04/27 02:41:39;;;;;;;18.90;13.25;;;6.00;99.90;;;;;;2495113;23;20015;-72
2022/04/27 02:42:41;;;;;;;18.55;13.45;;;6.00;99.90;;;;;;2495110;23;20545;-71
2022/04/27 02:43:44;;;;;;;18.30;13.35;;;6.00;99.90;;;;;;2483271;23;20012;-71
2022/04/27 02:44:49;;;;;;;17.65;13.52;;;6.00;99.90;;;;;;2484616;23;20020;-72
2022/04/27 02:45:52;;;;;;;16.23;12.75;;;5.90;99.90;;;;;;2484049;23;20019;-71
2022/04/27 02:46:52;;;;;;;17.88;13.52;;;5.90;99.90;;;;;;2495431;23;20067;-72
2022/04/27 02:47:53;;;;;;;18.05;13.98;;;5.90;99.90;;;;;;2507647;23;20045;-71
2022/04/27 02:51:51;;;;;;;19.23;14.18;;;5.90;99.90;;;;;;2499435;23;20003;-72
2022/04/27 02:53:15;;;;;;;20.35;13.80;;;5.80;99.90;;;;;;2493081;23;20015;-71
2022/04/27 02:54:17;;;;;;;18.48;14.15;;;5.80;99.90;;;;;;2507623;23;20042;-70
2022/04/27 02:55:18;;;;;;;17.38;13.38;;;5.90;99.90;;;;;;2507352;23;20528;-71
2022/04/27 02:56:18;;;;;;;16.48;13.07;;;5.80;99.90;;;;;;2507143;23;20007;-71
2022/04/27 02:57:19;;;;;;;19.02;13.63;;;5.80;99.90;;;;;;2494906;23;20495;-70
2022/04/27 02:58:20;;;;;;;17.52;13.52;;;5.80;99.90;;;;;;2506813;23;20013;-70
2022/04/27 02:59:22;;;;;;;17.90;14.20;;;5.80;99.90;;;;;;2495033;23;20106;-69
2022/04/27 03:00:26;;;;;;;16.17;13.00;;;5.80;99.90;;;;;;2495559;23;20038;-71
2022/04/27 03:01:28;;;;;;;17.30;13.32;;;5.80;99.90;;;;;;2506960;23;20037;-71
2022/04/27 03:02:28;;;;;;;17.35;13.73;;;5.90;99.90;;;;;;2507203;23;20011;-72
2022/04/27 03:03:29;;;;;;;17.75;13.57;;;5.80;99.90;;;;;;2495190;23;20011;-71
2022/04/27 03:04:32;;;;;;;19.05;13.50;;;5.80;99.90;;;;;;2506917;23;20010;-70
2022/04/27 03:05:33;;;;;;;16.40;13.05;;;5.80;99.90;;;;;;2495120;23;20019;-69
2022/04/27 03:06:34;;;;;;;17.83;13.43;;;5.80;99.90;;;;;;2495416;23;20496;-71
2022/04/27 03:07:34;;;;;;;17.50;13.57;;;5.90;99.90;;;;;;2506656;23;20010;-70
2022/04/27 03:08:36;;;;;;;17.55;13.13;;;5.90;99.90;;;;;;2494955;23;20086;-70
2022/04/27 03:09:36;;;;;;;17.35;13.38;;;5.90;99.90;;;;;;2495121;23;20000;-71
2022/04/27 03:10:37;;;;;;;17.67;13.45;;;5.90;99.90;;;;;;2506937;23;20027;-71
2022/04/27 03:11:38;;;;;;;16.58;12.90;;;5.90;99.90;;;;;;2507054;23;20011;-70
2022/04/27 03:12:52;;;;;;;20.48;14.20;;;5.90;99.90;;;;;;2495033;23;20444;-71
2022/04/27 03:13:52;;;;;;;16.60;13.02;;;5.90;99.90;;;;;;2495178;23;20070;-70
2022/04/27 03:14:53;;;;;;;17.52;13.18;;;5.90;99.90;;;;;;2506760;23;20011;-71
2022/04/27 03:15:54;;;;;;;17.48;13.45;;;5.90;99.90;;;;;;2506521;23;20011;-72
2022/04/27 03:16:55;;;;;;;16.40;13.13;;;5.90;99.90;;;;;;2494789;23;20436;-71
2022/04/27 03:19:15;;;;;;;18.45;13.65;;;5.90;99.90;;;;;;2503524;23;20014;-71
2022/04/27 03:20:16;;;;;;;17.85;13.63;;;5.90;99.90;;;;;;2494922;23;20003;-72
2022/04/27 03:21:16;;;;;;;17.92;13.50;;;5.90;99.90;;;;;;2495180;23;20007;-71
2022/04/27 03:22:17;;;;;;;18.55;13.95;;;6.00;99.90;;;;;;2506957;23;20003;-71
2022/04/27 03:23:18;;;;;;;18.38;13.82;;;5.90;99.90;;;;;;2506769;23;20027;-71
2022/04/27 03:24:23;;;;;;;18.85;13.88;;;6.00;99.90;;;;;;2495896;23;20014;-70
2022/04/27 03:25:27;;;;;;;16.83;13.13;;;6.00;99.90;;;;;;2506868;23;20077;-71
2022/04/27 03:26:29;;;;;;;17.40;13.35;;;6.00;99.90;;;;;;2494975;23;20034;-71
2022/04/27 03:27:32;;;;;;;17.15;13.27;;;6.00;99.90;;;;;;2494628;23;20018;-71
2022/04/27 03:28:32;;;;;;;17.05;13.50;;;6.00;99.90;;;;;;2506824;23;20010;-70
2022/04/27 03:29:33;;;;;;;16.55;13.32;;;6.00;99.90;;;;;;2506283;23;20098;-71
2022/04/27 03:30:36;;;;;;;17.33;12.88;;;6.00;99.90;;;;;;2506333;23;20013;-72
2022/04/27 03:31:43;;;;;;;17.17;12.70;;;6.00;99.90;;;;;;2484411;23;20011;-71
2022/04/27 03:32:44;;;;;;;16.10;12.73;;;6.00;99.90;;;;;;2494830;23;20031;-71
2022/04/27 03:33:45;;;;;;;17.55;13.25;;;6.00;99.90;;;;;;2494871;23;20000;-72
2022/04/27 03:34:46;;;;;;;16.33;12.88;;;5.90;99.90;;;;;;2494818;23;20007;-71
2022/04/27 03:35:47;;;;;;;18.23;13.82;;;5.90;99.90;;;;;;2506725;23;20094;-71
2022/04/27 03:36:48;;;;;;;16.10;13.38;;;5.90;99.90;;;;;;2506833;23;20427;-70
2022/04/27 03:37:49;;;;;;;16.40;13.38;;;5.90;99.90;;;;;;2506626;23;20094;-72
2022/04/27 03:38:51;;;;;;;17.30;13.52;;;5.90;99.90;;;;;;2506481;23;20523;-71
2022/04/27 03:39:52;;;;;;;18.05;13.55;;;5.90;99.90;;;;;;2506686;23;20440;-71
2022/04/27 03:40:54;;;;;;;18.60;13.25;;;5.90;99.90;;;;;;2495017;23;20081;-70
2022/04/27 03:41:57;;;;;;;18.38;13.32;;;6.00;99.90;;;;;;2495285;23;20021;-70
2022/04/27 03:42:58;;;;;;;16.75;13.32;;;5.90;99.90;;;;;;2494889;23;20700;-70
2022/04/27 03:43:59;;;;;;;18.08;13.88;;;6.00;99.90;;;;;;2495108;23;20494;-72
2022/04/27 03:45:00;;;;;;;19.85;14.27;;;6.00;99.90;;;;;;2507005;23;20011;-71
2022/04/27 03:46:05;;;;;;;18.77;13.75;;;6.00;99.90;;;;;;2494928;23;20831;-70
2022/04/27 03:47:08;;;;;;;19.23;14.30;;;6.00;99.90;;;;;;2483396;23;20023;-71
2022/04/27 03:48:09;;;;;;;19.38;14.40;;;6.00;99.90;;;;;;2495159;23;20011;-72
2022/04/27 03:49:10;;;;;;;18.67;13.75;;;6.00;99.90;;;;;;2483242;23;20015;-70
2022/04/27 03:50:11;;;;;;;18.50;13.60;;;6.00;99.90;;;;;;2483186;23;20014;-71
2022/04/27 03:51:23;;;;;;;19.13;13.40;;;6.00;99.90;;;;;;2483314;23;20160;-71
2022/04/27 03:52:24;;;;;;;19.90;14.43;;;6.00;99.90;;;;;;2485398;23;20063;-72
2022/04/27 03:53:26;;;;;;;18.35;13.32;;;6.10;99.90;;;;;;2495245;23;20000;-71
2022/04/27 03:54:27;;;;;;;19.08;13.75;;;6.10;99.90;;;;;;2494743;23;20011;-71
2022/04/27 03:55:28;;;;;;;18.88;13.48;;;6.10;99.90;;;;;;2494770;23;19999;-70
2022/04/27 03:56:30;;;;;;;18.63;13.60;;;6.10;99.90;;;;;;2495189;23;20086;-72
2022/04/27 03:57:31;;;;;;;19.85;14.65;;;6.10;99.90;;;;;;2506430;23;20011;-72
2022/04/27 03:58:32;;;;;;;19.52;14.77;;;6.10;99.90;;;;;;2494895;23;20553;-72
2022/04/27 03:59:33;;;;;;;19.30;14.27;;;6.10;99.90;;;;;;2494804;23;20026;-71
2022/04/27 04:00:35;;;;;;;18.10;13.85;;;6.10;99.90;;;;;;2494653;23;20054;-72
2022/04/27 04:01:42;;;;;;;18.75;14.07;;;6.10;99.90;;;;;;2494799;23;20011;-72
2022/04/27 04:02:43;;;;;;;19.30;14.10;;;6.10;99.90;;;;;;2483164;23;20515;-72
2022/04/27 04:03:44;;;;;;;18.85;13.63;;;6.10;99.90;;;;;;2483145;23;20007;-71
2022/04/27 04:04:45;;;;;;;20.27;14.10;;;6.10;99.90;;;;;;2482939;23;20542;-72
2022/04/27 04:05:46;;;;;;;18.05;13.75;;;6.20;99.90;;;;;;2494793;23;20017;-72
2022/04/27 04:06:48;;;;;;;19.98;13.65;;;6.20;99.90;;;;;;2494805;23;20007;-70
2022/04/27 04:07:49;;;;;;;16.48;12.63;;;6.20;99.90;;;;;;2482848;23;20039;-71
2022/04/27 04:08:49;;;;;;;19.13;13.25;;;6.10;99.90;;;;;;2494724;23;20007;-71
2022/04/27 04:09:50;;;;;;;19.15;13.20;;;6.20;99.90;;;;;;2494623;23;20014;-71
2022/04/27 04:10:52;;;;;;;16.42;12.45;;;6.20;99.90;;;;;;2494903;23;20008;-71
2022/04/27 04:11:54;;;;;;;17.08;12.90;;;6.20;99.90;;;;;;2506536;23;20021;-71
2022/04/27 04:13:22;;;;;;;18.25;12.25;;;6.20;99.90;;;;;;2506879;23;20002;-70
2022/04/27 04:14:25;;;;;;;18.58;12.52;;;6.20;99.90;;;;;;2507789;23;20034;-71
2022/04/27 04:15:37;;;;;;;17.77;13.10;;;6.20;99.90;;;;;;2495074;23;20003;-71
2022/04/27 04:16:56;;;;;;;16.35;12.93;;;6.20;99.90;;;;;;2499182;23;20444;-71
2022/04/27 04:18:07;;;;;;;18.38;12.90;;;6.20;99.90;;;;;;2495135;23;20086;-70
2022/04/27 04:19:11;;;;;;;17.88;13.02;;;6.30;99.90;;;;;;2483975;23;20007;-71
2022/04/27 04:20:33;;;;;;;17.20;12.68;;;6.30;99.90;;;;;;2499178;23;20008;-72
2022/04/27 04:21:44;;;;;;;17.05;12.98;;;6.30;99.90;;;;;;2506748;23;20003;-72
2022/04/27 04:22:59;;;;;;;16.20;12.45;;;6.30;99.90;;;;;;2495135;23;20054;-71
2022/04/27 04:24:11;;;;;;;16.10;12.73;;;6.40;99.90;;;;;;2494979;23;20003;-72
2022/04/27 04:29:16;;;;;;;;;;;6.50;99.90;;;;;;2495432;23;20627;-71
2022/04/27 04:30:16;;;;;;;16.83;12.55;;;6.50;99.90;;;;;;2483100;23;19906;-71
2022/04/27 04:31:21;;;;;;;16.63;12.88;;;6.50;99.90;;;;;;2484485;23;20048;-72
2022/04/27 04:32:27;;;;;;;18.00;13.07;;;6.50;99.90;;;;;;2500895;23;20035;-70
2022/04/27 04:33:57;;;;;;;17.02;12.85;;;6.60;99.90;;;;;;2495090;23;20003;-70
2022/04/27 04:34:58;;;;;;;18.50;12.98;;;6.60;99.90;;;;;;2494788;23;20011;-71
2022/04/27 04:35:59;;;;;;;17.00;12.52;;;6.60;99.90;;;;;;2506487;23;20380;-71
2022/04/27 04:37:01;;;;;;;18.42;13.35;;;6.60;99.90;;;;;;2494499;23;20035;-71
2022/04/27 04:38:04;;;;;;;36.97;21.73;;;6.70;99.90;;;;;;2494537;23;20019;-71
2022/04/27 04:39:05;;;;;;;27.40;19.98;;;6.70;99.90;;;;;;2494661;23;20025;-71
2022/04/27 04:40:11;;;;;;;26.83;18.17;;;6.70;99.90;;;;;;2483693;23;20007;-71
2022/04/27 04:41:11;;;;;;;21.98;16.75;;;6.70;99.90;;;;;;2471328;23;20040;-71
2022/04/27 04:42:17;;;;;;;26.05;16.27;;;6.70;99.90;;;;;;2473052;23;20004;-70
2022/04/27 04:43:18;;;;;;;19.10;14.30;;;6.80;99.90;;;;;;2494710;23;20000;-72
2022/04/27 04:44:18;;;;;;;18.27;13.88;;;6.80;99.90;;;;;;2494545;23;20010;-70
2022/04/27 04:45:40;;;;;;;16.27;12.85;;;6.80;99.90;;;;;;2494017;23;20533;-70
2022/04/27 04:46:55;;;;;;;17.52;12.65;;;6.90;99.90;;;;;;2506546;23;20017;-72
2022/04/27 04:48:06;;;;;;;16.70;12.40;;;6.90;99.90;;;;;;2494639;23;20026;-71
2022/04/27 04:49:28;;;;;;;15.82;12.00;;;7.00;99.90;;;;;;2498575;23;20019;-71
2022/04/27 04:50:48;;;;;;;16.08;12.07;;;7.00;99.90;;;;;;2499730;23;20011;-71
2022/04/27 04:52:15;;;;;;;15.23;11.70;;;7.00;99.90;;;;;;2495908;23;20048;-72
2022/04/27 04:53:41;;;;;;;16.77;11.98;;;7.10;99.90;;;;;;2494846;23;20011;-72
2022/04/27 04:55:00;;;;;;;18.70;12.70;;;7.10;99.90;;;;;;2495750;23;20023;-72
2022/04/27 04:56:26;;;;;;;18.75;11.88;;;7.10;99.90;;;;;;2495915;23;20053;-73
2022/04/27 04:57:50;;;;;;;18.52;12.32;;;7.20;99.90;;;;;;2495331;23;20012;-72
2022/04/27 04:59:08;;;;;;;16.23;12.07;;;7.20;99.90;;;;;;2506826;23;20007;-72
2022/04/27 05:00:20;;;;;;;16.38;12.25;;;7.20;99.90;;;;;;2504608;23;19999;-72
2022/04/27 05:01:24;;;;;;;16.40;12.48;;;7.30;99.90;;;;;;2495817;23;20011;-72
2022/04/27 05:02:31;;;;;;;16.50;12.52;;;7.30;99.90;;;;;;2506460;23;20081;-71
2022/04/27 05:04:08;;;;;;;17.90;11.85;;;7.40;99.90;;;;;;2483559;23;20012;-71
2022/04/27 05:05:27;;;;;;;17.67;12.38;;;7.40;99.90;;;;;;2494921;23;20023;-72
2022/04/27 05:06:38;;;;;;;16.15;12.30;;;7.40;99.90;;;;;;2485378;23;20012;-71
2022/04/27 05:08:14;;;;;;;17.13;12.23;;;7.50;99.90;;;;;;2494020;23;20043;-72
2022/04/27 05:09:34;;;;;;;17.23;12.27;;;7.60;99.90;;;;;;2483570;23;20023;-71
2022/04/27 05:10:54;;;;;;;17.50;12.18;;;7.60;99.90;;;;;;2491449;23;20031;-72
2022/04/27 05:12:04;;;;;;;19.45;13.05;;;7.70;99.90;;;;;;2506565;23;20461;-71
2022/04/27 05:13:24;;;;;;;18.55;13.13;;;7.80;99.90;;;;;;2504784;23;20039;-72
2022/04/27 05:14:47;;;;;;;18.48;13.77;;;7.90;99.90;;;;;;2491572;23;20003;-71
2022/04/27 05:15:56;;;;;;;16.77;12.88;;;7.90;99.90;;;;;;2506571;23;20037;-72
2022/04/27 05:17:19;;;;;;;17.88;12.93;;;8.00;99.90;;;;;;2494397;23;20031;-72
2022/04/27 05:18:47;;;;;;;21.00;13.77;;;8.10;99.90;;;;;;2489048;23;20023;-71
2022/04/27 05:20:11;;;;;;;21.67;13.25;;;8.10;99.90;;;;;;2464243;24;20024;-72
2022/04/27 05:21:26;;;;;;;21.92;12.85;;;8.20;99.90;;;;;;2494906;23;20011;-72
2022/04/27 05:22:38;;;;;;;20.77;14.32;;;8.20;99.90;;;;;;2499327;23;20015;-71
2022/04/27 05:23:57;;;;;;;19.33;13.52;;;8.30;99.90;;;;;;2506761;23;20007;-71
2022/04/27 05:25:34;;;;;;;16.83;12.80;;;8.30;99.90;;;;;;2464524;24;20031;-71
2022/04/27 05:27:05;;;;;;;20.48;13.52;;;8.30;99.90;;;;;;2458613;24;20119;-71
2022/04/27 05:28:24;;;;;;;20.30;13.40;;;8.30;99.90;;;;;;2498973;23;20018;-71
2022/04/27 05:32:56;;;;;;;15.60;12.00;;;8.40;99.90;;;;;;2495242;23;20062;-69
2022/04/27 05:34:17;;;;;;;;;;;8.60;99.90;;;;;;2494531;23;20618;-71
2022/04/27 05:35:27;;;;;;;20.20;13.65;;;8.60;99.90;;;;;;2493645;23;19909;-72
2022/04/27 05:36:46;;;;;;;18.02;13.35;;;8.60;99.90;;;;;;2494698;23;20015;-70
2022/04/27 05:38:05;;;;;;;17.40;12.50;;;8.70;99.90;;;;;;2496543;23;20420;-72
2022/04/27 05:39:29;;;;;;;21.20;13.40;;;8.70;99.90;;;;;;2470199;24;20393;-72
2022/04/27 05:40:50;;;;;;;19.58;13.75;;;8.70;99.90;;;;;;2478044;23;20071;-71
2022/04/27 05:42:16;;;;;;;18.38;13.98;;;8.70;99.90;;;;;;2508779;23;20125;-71
2022/04/27 05:43:34;;;;;;;19.80;13.70;;;8.80;99.90;;;;;;2494530;23;19999;-72
2022/04/27 05:44:50;;;;;;;18.73;13.95;;;8.80;99.90;;;;;;2497175;23;20019;-70
2022/04/27 05:45:58;;;;;;;17.23;13.95;;;8.90;99.90;;;;;;2505942;23;20510;-70
2022/04/27 05:47:13;;;;;;;18.52;13.07;;;8.90;99.90;;;;;;2506143;23;20038;-71
2022/04/27 05:48:26;;;;;;;18.90;13.60;;;8.90;99.90;;;;;;2494137;23;20008;-71
2022/04/27 05:49:39;;;;;;;19.98;13.15;;;8.90;99.90;;;;;;2496836;23;20012;-70
2022/04/27 05:51:09;;;;;;;21.83;13.80;;;8.90;99.90;;;;;;2494433;23;20351;-70